Dalecity, Virginia
Current Conditions -  °F | °C
As of 9:58 AM on Saturday 20 Dec 2014 (Local Time) from KDAA Reporting Station
Clear Clear  
Wind Chill: 31°   Ceiling: Unl
Heat Index: 31°   Visibility: 10mi
Dew Point: 24°   Wind: 1mph
Humidity: 75%   Direction: NA
Pressure: 30.34"   Gusts: NA
Location:  38.6486°N, 77.3446°W
Report Text: KDAA 201458Z AUTO VRB01KT 10SM CLR 00/M04 A3034 RMK AO2 SLP278 T10031043 53008
Loading
Personal Weather Stations






























Interactive Weather Map New forecast layout! Learn more

10-Day Weather Forecast

Advertisements
Track Severe Weather on mobile